createdAt,value
2023-05-17T00:00:54.889Z,30.90
2023-05-17T00:03:23.947Z,30.90
2023-05-17T00:05:53.351Z,30.90
2023-05-17T00:08:23.864Z,30.90
2023-05-17T00:10:52.666Z,30.90
2023-05-17T00:13:21.748Z,30.90
2023-05-17T00:15:50.518Z,30.90
2023-05-17T00:18:19.718Z,30.90
2023-05-17T00:20:48.689Z,30.80
2023-05-17T00:23:17.692Z,30.80
2023-05-17T00:25:47.847Z,30.80
2023-05-17T00:28:16.947Z,30.80
2023-05-17T00:30:45.686Z,30.80
2023-05-17T00:33:14.741Z,30.80
2023-05-17T00:35:43.479Z,30.80
2023-05-17T00:38:13.914Z,30.80
2023-05-17T00:40:42.691Z,30.80
2023-05-17T00:43:13.162Z,30.80
2023-05-17T00:45:41.908Z,30.80
2023-05-17T00:48:11.240Z,30.80
2023-05-17T00:50:40.148Z,30.80
2023-05-17T00:53:11.373Z,30.80
2023-05-17T00:55:40.147Z,30.80
2023-05-17T00:58:09.205Z,30.80
2023-05-17T01:00:39.745Z,30.80
2023-05-17T01:03:09.181Z,30.80
2023-05-17T01:05:38.150Z,30.80
2023-05-17T01:08:07.477Z,30.80
2023-05-17T01:10:55.978Z,30.70
2023-05-17T01:13:34.687Z,30.70
2023-05-17T01:16:17.235Z,30.70
2023-05-17T01:18:53.747Z,30.70
2023-05-17T01:21:42.029Z,30.70
2023-05-17T01:24:28.414Z,30.70
2023-05-17T01:27:01.544Z,30.60
2023-05-17T01:29:32.128Z,30.60
2023-05-17T01:32:04.405Z,30.50
2023-05-17T01:34:33.622Z,30.50
2023-05-17T01:37:02.432Z,30.60
2023-05-17T01:39:32.776Z,30.50
2023-05-17T01:42:18.380Z,30.50
2023-05-17T01:45:01.171Z,30.50
2023-05-17T01:47:39.569Z,30.50
2023-05-17T01:50:13.895Z,30.50
2023-05-17T01:52:53.988Z,30.40
2023-05-17T01:55:35.570Z,30.40
2023-05-17T01:58:09.832Z,30.30
2023-05-17T02:00:42.621Z,30.30
2023-05-17T02:03:18.174Z,30.20
2023-05-17T02:05:47.738Z,30.20
2023-05-17T02:08:16.585Z,30.10
2023-05-17T02:10:45.722Z,30.10
2023-05-17T02:13:16.042Z,30.10
2023-05-17T02:15:46.342Z,30.00
2023-05-17T02:18:15.118Z,30.00
2023-05-17T02:20:44.270Z,29.90
2023-05-17T02:23:13.055Z,29.90
2023-05-17T02:25:42.150Z,29.90
2023-05-17T02:28:10.855Z,29.90
2023-05-17T02:30:41.657Z,29.80
2023-05-17T02:33:10.752Z,29.80
2023-05-17T02:35:41.152Z,29.80
2023-05-17T02:38:09.916Z,29.80
2023-05-17T02:40:41.969Z,29.80
2023-05-17T02:43:10.845Z,29.80
2023-05-17T02:45:41.206Z,29.70
2023-05-17T02:48:10.004Z,29.70
2023-05-17T02:50:39.426Z,29.70
2023-05-17T02:53:08.153Z,29.70
2023-05-17T02:55:37.293Z,29.70
2023-05-17T02:58:06.741Z,29.70
2023-05-17T03:00:36.724Z,29.70
2023-05-17T03:03:07.084Z,29.70
2023-05-17T03:05:36.507Z,29.70
2023-05-17T03:08:06.085Z,29.60
2023-05-17T03:10:35.295Z,29.70
2023-05-17T03:13:04.177Z,29.70
2023-05-17T03:15:37.273Z,29.60
2023-05-17T03:18:07.983Z,29.60
2023-05-17T03:20:39.327Z,29.60
2023-05-17T03:23:08.657Z,29.60
2023-05-17T03:25:45.097Z,29.60
2023-05-17T03:28:13.851Z,29.60
2023-05-17T03:30:43.268Z,29.60
2023-05-17T03:33:13.822Z,29.60
2023-05-17T03:35:43.140Z,29.60
2023-05-17T03:38:12.658Z,29.60
2023-05-17T03:40:42.507Z,29.60
2023-05-17T03:43:11.570Z,29.60
2023-05-17T03:45:40.691Z,29.60
2023-05-17T03:48:09.610Z,29.60
2023-05-17T03:50:41.968Z,29.50
2023-05-17T03:53:11.462Z,29.50
2023-05-17T03:55:41.064Z,29.40
2023-05-17T03:58:09.871Z,29.40
2023-05-17T04:00:39.115Z,29.50
2023-05-17T04:03:14.284Z,29.50
2023-05-17T04:05:46.549Z,29.50
2023-05-17T04:08:15.962Z,29.40
2023-05-17T04:10:45.655Z,29.40
2023-05-17T04:13:14.382Z,29.40
2023-05-17T04:15:43.594Z,29.40
2023-05-17T04:18:12.430Z,29.40
2023-05-17T04:20:41.547Z,29.30
2023-05-17T04:23:12.005Z,29.30
2023-05-17T04:25:42.291Z,29.30
2023-05-17T04:28:11.107Z,29.30
2023-05-17T04:30:43.923Z,29.30
2023-05-17T04:33:14.324Z,29.30
2023-05-17T04:35:44.163Z,29.30
2023-05-17T04:38:16.358Z,29.30
2023-05-17T04:40:46.332Z,29.30
2023-05-17T04:43:15.571Z,29.30
2023-05-17T04:45:45.398Z,29.30
2023-05-17T04:48:15.650Z,29.30
2023-05-17T04:50:47.197Z,29.30
2023-05-17T04:53:19.061Z,29.30
2023-05-17T04:55:49.269Z,29.30
2023-05-17T04:58:19.710Z,29.30
2023-05-17T05:00:54.492Z,29.30
2023-05-17T05:03:24.669Z,29.40
2023-05-17T05:05:54.154Z,29.40
2023-05-17T05:08:24.682Z,29.40
2023-05-17T05:10:55.411Z,29.40
2023-05-17T05:13:25.968Z,29.40
2023-05-17T05:15:56.875Z,29.30
2023-05-17T05:18:26.650Z,29.40
2023-05-17T05:20:56.405Z,29.30
2023-05-17T05:23:27.803Z,29.30
2023-05-17T05:25:58.916Z,29.30
2023-05-17T05:28:27.701Z,29.30
2023-05-17T05:31:00.418Z,29.30
2023-05-17T05:33:36.539Z,29.30
2023-05-17T05:36:07.108Z,29.30
2023-05-17T05:38:37.654Z,29.40
2023-05-17T05:41:08.022Z,29.30
2023-05-17T05:43:38.719Z,29.40
2023-05-17T05:46:08.166Z,29.40
2023-05-17T05:48:39.539Z,29.30
2023-05-17T05:51:09.731Z,29.30
2023-05-17T05:53:42.233Z,29.30
2023-05-17T05:56:11.395Z,29.30
2023-05-17T05:58:40.685Z,29.30
2023-05-17T06:01:11.512Z,29.30
2023-05-17T06:03:40.340Z,29.30
2023-05-17T06:06:10.293Z,29.30
2023-05-17T06:08:39.204Z,29.30
2023-05-17T06:11:09.596Z,29.30
2023-05-17T06:13:38.465Z,29.30
2023-05-17T06:16:08.167Z,29.30
2023-05-17T06:18:37.187Z,29.30
2023-05-17T06:21:06.546Z,29.30
2023-05-17T06:23:35.399Z,29.30
2023-05-17T06:26:07.478Z,29.30
2023-05-17T06:28:37.746Z,29.30
2023-05-17T06:31:07.291Z,29.30
2023-05-17T06:33:36.168Z,29.30
2023-05-17T06:36:06.146Z,29.30
2023-05-17T06:38:34.970Z,29.20
2023-05-17T06:41:04.086Z,29.20
2023-05-17T06:43:33.736Z,29.20
2023-05-17T06:46:05.633Z,29.20
2023-05-17T06:48:34.657Z,29.20
2023-05-17T06:51:03.862Z,29.20
2023-05-17T06:53:32.675Z,29.20
2023-05-17T06:56:01.752Z,29.20
2023-05-17T06:58:30.984Z,29.30
2023-05-17T07:01:00.053Z,29.30
2023-05-17T07:03:30.566Z,29.30
2023-05-17T07:05:59.816Z,29.30
2023-05-17T07:08:29.637Z,29.30
2023-05-17T07:10:58.728Z,29.30
2023-05-17T07:13:27.579Z,29.30
2023-05-17T07:15:56.724Z,29.20
2023-05-17T07:18:25.610Z,29.30
2023-05-17T07:20:56.232Z,29.30
2023-05-17T07:23:25.178Z,29.30
2023-05-17T07:25:54.345Z,29.30
2023-05-17T07:28:23.173Z,29.30
2023-05-17T07:30:52.520Z,29.30
2023-05-17T07:33:24.256Z,29.30
2023-05-17T07:35:54.967Z,29.30
2023-05-17T07:38:23.795Z,29.30
2023-05-17T07:40:52.828Z,29.30
2023-05-17T07:43:21.768Z,29.30
2023-05-17T07:45:50.810Z,29.30
2023-05-17T07:48:20.110Z,29.40
2023-05-17T07:50:49.705Z,29.30
2023-05-17T07:53:19.915Z,29.30
2023-05-17T07:55:49.079Z,29.30
2023-05-17T07:58:17.842Z,29.30
2023-05-17T08:00:47.101Z,29.30
2023-05-17T08:03:17.327Z,29.30
2023-05-17T08:05:46.772Z,29.30
2023-05-17T08:08:15.720Z,29.30
2023-05-17T08:10:46.195Z,29.30
2023-05-17T08:13:15.062Z,29.30
2023-05-17T08:15:44.102Z,29.20
2023-05-17T08:18:13.017Z,29.20
2023-05-17T08:20:42.196Z,29.20
2023-05-17T08:23:10.959Z,29.20
2023-05-17T08:25:40.215Z,29.20
2023-05-17T08:28:10.395Z,29.20
2023-05-17T08:30:39.578Z,29.20
2023-05-17T08:33:10.813Z,29.20
2023-05-17T08:35:39.911Z,29.20
2023-05-17T08:38:08.788Z,29.30
2023-05-17T08:40:37.834Z,29.30
2023-05-17T08:43:10.093Z,29.30
2023-05-17T08:45:40.235Z,29.20
2023-05-17T08:48:09.468Z,29.20
2023-05-17T08:50:40.059Z,29.20
2023-05-17T08:53:10.802Z,29.10
2023-05-17T08:55:43.729Z,29.20
2023-05-17T08:58:16.712Z,29.20
2023-05-17T09:00:47.164Z,29.10
2023-05-17T09:03:19.972Z,29.10
2023-05-17T09:05:52.865Z,29.10
2023-05-17T09:08:23.795Z,28.90
2023-05-17T09:10:53.126Z,28.90
2023-05-17T09:13:23.525Z,28.90
2023-05-17T09:15:54.220Z,28.90
2023-05-17T09:18:32.987Z,29.00
2023-05-17T09:21:05.241Z,28.90
2023-05-17T09:23:34.608Z,28.80
2023-05-17T09:26:08.240Z,28.90
2023-05-17T09:28:43.572Z,28.80
2023-05-17T09:31:15.184Z,28.80
2023-05-17T09:33:48.785Z,28.90
2023-05-17T09:36:20.449Z,28.80
2023-05-17T09:38:57.004Z,28.80
2023-05-17T09:41:28.584Z,28.90
2023-05-17T09:44:03.101Z,28.80
2023-05-17T09:46:35.632Z,28.70
2023-05-17T09:49:05.090Z,28.70
2023-05-17T09:51:35.327Z,28.70
2023-05-17T09:54:04.602Z,28.70
2023-05-17T09:56:35.115Z,28.70
2023-05-17T09:59:12.626Z,28.70
2023-05-17T10:01:45.308Z,28.70
2023-05-17T10:04:20.590Z,28.70
2023-05-17T10:06:54.069Z,28.70
2023-05-17T10:09:24.185Z,28.60
2023-05-17T10:11:57.924Z,28.60
2023-05-17T10:14:33.166Z,28.60
2023-05-17T10:17:03.615Z,28.50
2023-05-17T10:19:33.468Z,28.50
2023-05-17T10:22:18.950Z,28.40
2023-05-17T10:24:52.735Z,28.30
2023-05-17T10:27:23.069Z,28.40
2023-05-17T10:29:55.522Z,28.40
2023-05-17T10:32:28.089Z,28.40
2023-05-17T10:35:10.668Z,28.40
2023-05-17T10:37:42.217Z,28.50
2023-05-17T10:40:14.277Z,28.40
2023-05-17T10:42:50.924Z,28.50
2023-05-17T10:45:27.267Z,28.50
2023-05-17T10:47:58.867Z,28.50
2023-05-17T10:50:30.136Z,28.50
2023-05-17T10:53:01.138Z,28.60
2023-05-17T10:55:40.655Z,28.60
2023-05-17T10:58:19.696Z,28.60
2023-05-17T11:00:55.656Z,28.70
2023-05-17T11:03:30.237Z,28.70
2023-05-17T11:06:25.399Z,28.70
2023-05-17T11:09:09.670Z,28.80
2023-05-17T11:11:38.551Z,28.80
2023-05-17T11:14:11.896Z,28.80
2023-05-17T11:16:42.412Z,28.90
2023-05-17T11:19:13.220Z,28.90
2023-05-17T11:21:48.678Z,28.90
2023-05-17T11:24:26.881Z,28.80
2023-05-17T11:27:00.356Z,28.80
2023-05-17T11:29:31.770Z,28.80
2023-05-17T11:32:07.721Z,28.80
2023-05-17T11:34:37.006Z,28.80
2023-05-17T11:37:12.007Z,28.80
2023-05-17T11:40:06.278Z,28.80
2023-05-17T11:42:37.320Z,28.80
2023-05-17T11:45:08.726Z,28.80
2023-05-17T11:47:42.908Z,28.80
2023-05-17T11:50:14.683Z,28.80
2023-05-17T11:52:45.053Z,28.80
2023-05-17T11:55:17.016Z,28.80
2023-05-17T11:57:46.356Z,28.80
2023-05-17T12:00:17.621Z,28.90
2023-05-17T12:02:48.404Z,28.90
2023-05-17T12:05:22.344Z,28.90
2023-05-17T12:07:52.841Z,28.90
2023-05-17T12:10:22.513Z,29.00
2023-05-17T12:12:51.437Z,29.00
2023-05-17T12:15:20.981Z,29.10
2023-05-17T12:17:54.599Z,29.00
2023-05-17T12:20:25.122Z,29.10
2023-05-17T12:22:54.778Z,29.10
2023-05-17T12:25:28.010Z,29.10
2023-05-17T12:28:14.969Z,29.20
2023-05-17T12:30:44.645Z,29.20
2023-05-17T12:33:16.234Z,29.30
2023-05-17T12:35:45.990Z,29.20
2023-05-17T12:38:15.230Z,29.20
2023-05-17T12:40:44.805Z,29.20
2023-05-17T12:43:13.651Z,29.30
2023-05-17T12:45:43.288Z,29.20
2023-05-17T12:48:12.241Z,29.30
2023-05-17T12:50:46.302Z,29.30
2023-05-17T12:53:15.068Z,29.30
2023-05-17T12:55:44.195Z,29.30
2023-05-17T12:58:12.942Z,29.30
2023-05-17T13:00:42.105Z,29.30
2023-05-17T13:03:11.773Z,29.40
2023-05-17T13:05:44.282Z,29.40
2023-05-17T13:08:22.898Z,29.40
2023-05-17T13:10:51.998Z,29.40
2023-05-17T13:13:22.563Z,29.30
2023-05-17T13:15:51.862Z,29.40
2023-05-17T13:18:21.424Z,29.30
2023-05-17T13:20:52.009Z,29.30
2023-05-17T13:23:20.856Z,29.30
2023-05-17T13:25:50.036Z,29.30
2023-05-17T13:28:18.789Z,29.40
2023-05-17T13:30:52.097Z,29.40
2023-05-17T13:33:21.207Z,29.40
2023-05-17T13:35:51.955Z,29.50
2023-05-17T13:38:20.858Z,29.50
2023-05-17T13:40:50.094Z,29.50
2023-05-17T13:43:19.623Z,29.50
2023-05-17T13:45:54.430Z,29.60
2023-05-17T13:48:23.830Z,29.60
2023-05-17T13:50:54.642Z,29.60
2023-05-17T13:53:23.555Z,29.60
2023-05-17T13:55:52.709Z,29.60
2023-05-17T13:58:21.722Z,29.60
2023-05-17T14:00:51.838Z,29.50
2023-05-17T14:03:21.567Z,29.50
2023-05-17T14:05:52.924Z,29.40
2023-05-17T14:08:23.180Z,29.40
2023-05-17T14:10:52.404Z,29.30
2023-05-17T14:13:21.120Z,29.30
2023-05-17T14:15:50.223Z,29.30
2023-05-17T14:18:19.120Z,29.30
2023-05-17T14:20:48.411Z,29.30
2023-05-17T14:23:17.233Z,29.30
2023-05-17T14:25:49.472Z,29.30
2023-05-17T14:28:18.790Z,29.30
2023-05-17T14:30:48.035Z,29.40
2023-05-17T14:33:17.001Z,29.40
2023-05-17T14:35:46.075Z,29.50
2023-05-17T14:38:14.961Z,29.50
2023-05-17T14:40:44.008Z,29.50
2023-05-17T14:43:14.183Z,29.50
2023-05-17T14:45:43.493Z,29.60
2023-05-17T14:48:12.299Z,29.50
2023-05-17T14:50:41.648Z,29.50
2023-05-17T14:53:10.626Z,29.50
2023-05-17T14:55:39.964Z,29.50
2023-05-17T14:58:09.121Z,29.40
2023-05-17T15:00:41.944Z,29.40
2023-05-17T15:03:11.011Z,29.40
2023-05-17T15:05:40.366Z,29.40
2023-05-17T15:08:10.866Z,29.40
2023-05-17T15:10:40.214Z,29.40
2023-05-17T15:13:08.952Z,29.40
2023-05-17T15:15:40.528Z,29.30
2023-05-17T15:18:09.455Z,29.30
2023-05-17T15:20:39.510Z,29.30
2023-05-17T15:23:08.440Z,29.40
2023-05-17T15:25:37.732Z,29.30
2023-05-17T15:28:07.332Z,29.30
2023-05-17T15:30:36.431Z,29.30
2023-05-17T15:33:06.735Z,29.30
2023-05-17T15:35:36.057Z,29.30
2023-05-17T15:38:07.067Z,29.30
2023-05-17T15:40:36.387Z,29.40
2023-05-17T15:43:05.123Z,29.40
2023-05-17T15:45:34.218Z,29.40
2023-05-17T15:48:03.196Z,29.40
2023-05-17T15:50:33.654Z,29.30
2023-05-17T15:53:02.720Z,29.40
2023-05-17T15:55:32.074Z,29.30
2023-05-17T15:58:00.999Z,29.40
2023-05-17T16:00:30.204Z,29.30
2023-05-17T16:02:59.899Z,29.30
2023-05-17T16:05:33.609Z,29.30
2023-05-17T16:08:03.888Z,29.30
2023-05-17T16:10:33.139Z,29.30
2023-05-17T16:13:02.048Z,29.30
2023-05-17T16:15:31.286Z,29.40
2023-05-17T16:18:01.319Z,29.40
2023-05-17T16:20:31.146Z,29.40
2023-05-17T16:22:59.972Z,29.40
2023-05-17T16:25:31.090Z,29.40
2023-05-17T16:28:00.388Z,29.40
2023-05-17T16:30:29.653Z,29.40
2023-05-17T16:32:58.771Z,29.40
2023-05-17T16:35:28.830Z,29.40
2023-05-17T16:37:57.911Z,29.40
2023-05-17T16:40:28.984Z,29.40
2023-05-17T16:42:59.397Z,29.40
2023-05-17T16:45:28.670Z,29.40
2023-05-17T16:47:57.810Z,29.40
2023-05-17T16:50:27.219Z,29.50
2023-05-17T16:52:56.212Z,29.50
2023-05-17T16:55:25.636Z,29.50
2023-05-17T16:57:54.464Z,29.50
2023-05-17T17:00:25.257Z,29.50
2023-05-17T17:02:54.267Z,29.50
2023-05-17T17:05:26.803Z,29.60
2023-05-17T17:07:56.393Z,29.60
2023-05-17T17:10:25.568Z,29.60
2023-05-17T17:12:54.323Z,29.60
2023-05-17T17:15:24.962Z,29.60
2023-05-17T17:17:53.784Z,29.60
2023-05-17T17:20:23.014Z,29.60
2023-05-17T17:22:54.660Z,29.60
2023-05-17T17:25:24.773Z,29.60
2023-05-17T17:27:53.780Z,29.60
2023-05-17T17:30:24.267Z,29.60
2023-05-17T17:32:53.308Z,29.60
2023-05-17T17:35:22.701Z,29.60
2023-05-17T17:37:53.154Z,29.60
2023-05-17T17:40:22.384Z,29.50
2023-05-17T17:42:51.315Z,29.50
2023-05-17T17:45:20.590Z,29.50
2023-05-17T17:47:51.106Z,29.50
2023-05-17T17:50:20.439Z,29.40
2023-05-17T17:52:50.892Z,29.40
2023-05-17T17:55:20.073Z,29.40
2023-05-17T17:57:49.150Z,29.40
2023-05-17T18:00:19.024Z,29.40
2023-05-17T18:02:47.925Z,29.40
2023-05-17T18:05:18.452Z,29.40
2023-05-17T18:07:47.248Z,29.40
2023-05-17T18:10:16.295Z,29.40
2023-05-17T18:12:45.187Z,29.40
2023-05-17T18:15:15.416Z,29.40
2023-05-17T18:17:44.330Z,29.30
2023-05-17T18:20:13.589Z,29.40
2023-05-17T18:22:43.881Z,29.30
2023-05-17T18:25:12.916Z,29.30
2023-05-17T18:27:41.842Z,29.30
2023-05-17T18:30:12.820Z,29.30
2023-05-17T18:32:41.707Z,29.30
2023-05-17T18:35:11.322Z,29.30
2023-05-17T18:37:40.168Z,29.30
2023-05-17T18:40:12.322Z,29.30
2023-05-17T18:42:41.256Z,29.30
2023-05-17T18:45:11.827Z,29.30
2023-05-17T18:47:40.588Z,29.30
2023-05-17T18:50:10.217Z,29.30
2023-05-17T18:52:39.518Z,29.30
2023-05-17T18:55:10.677Z,29.30
2023-05-17T18:57:39.554Z,29.30
2023-05-17T19:00:10.613Z,29.30
2023-05-17T19:02:39.562Z,29.20
2023-05-17T19:05:09.967Z,29.20
2023-05-17T19:07:38.766Z,29.30
2023-05-17T19:10:11.014Z,29.20
2023-05-17T19:12:39.748Z,29.20
2023-05-17T19:15:10.808Z,29.20
2023-05-17T19:17:39.878Z,29.20
2023-05-17T19:20:11.007Z,29.20
2023-05-17T19:22:39.940Z,29.20
2023-05-17T19:25:11.154Z,29.20
2023-05-17T19:27:39.924Z,29.20
2023-05-17T19:30:10.866Z,29.20
2023-05-17T19:32:39.907Z,29.10
2023-05-17T19:35:10.646Z,29.10
2023-05-17T19:37:39.531Z,29.10
2023-05-17T19:40:12.094Z,29.10
2023-05-17T19:42:41.060Z,29.10
2023-05-17T19:45:11.911Z,29.10
2023-05-17T19:47:41.319Z,29.10
2023-05-17T19:50:12.393Z,29.10
2023-05-17T19:52:41.282Z,29.00
2023-05-17T19:55:12.973Z,29.00
2023-05-17T19:57:41.852Z,29.00
2023-05-17T20:00:12.631Z,29.00
2023-05-17T20:02:41.553Z,29.00
2023-05-17T20:05:11.377Z,29.00
2023-05-17T20:07:40.463Z,29.00
2023-05-17T20:10:11.877Z,28.90
2023-05-17T20:12:40.963Z,28.90
2023-05-17T20:15:11.744Z,28.90
2023-05-17T20:17:40.833Z,28.90
2023-05-17T20:20:10.940Z,28.90
2023-05-17T20:22:41.193Z,28.90
2023-05-17T20:25:12.079Z,28.90
2023-05-17T20:27:41.090Z,28.80
2023-05-17T20:30:11.576Z,28.90
2023-05-17T20:32:40.569Z,28.80
2023-05-17T20:35:10.469Z,28.80
2023-05-17T20:37:39.223Z,28.80
2023-05-17T20:40:11.782Z,28.80
2023-05-17T20:42:40.713Z,28.70
2023-05-17T20:45:13.220Z,28.70
2023-05-17T20:47:43.487Z,28.70
2023-05-17T20:50:14.181Z,28.70
2023-05-17T20:52:43.071Z,28.60
2023-05-17T20:55:13.543Z,28.60
2023-05-17T20:57:42.592Z,28.60
2023-05-17T21:00:15.979Z,28.60
2023-05-17T21:02:45.066Z,28.50
2023-05-17T21:05:14.268Z,28.60
2023-05-17T21:07:43.082Z,28.50
2023-05-17T21:10:13.563Z,28.50
2023-05-17T21:12:42.366Z,28.50
2023-05-17T21:15:16.506Z,28.50
2023-05-17T21:17:47.341Z,28.50
2023-05-17T21:20:16.764Z,28.40
2023-05-17T21:22:45.963Z,28.40
2023-05-17T21:25:16.545Z,28.40
2023-05-17T21:27:45.440Z,28.30
2023-05-17T21:30:14.870Z,28.30
2023-05-17T21:32:43.692Z,28.30
2023-05-17T21:35:12.955Z,28.30
2023-05-17T21:37:42.444Z,28.20
2023-05-17T21:40:12.208Z,28.30
2023-05-17T21:42:43.002Z,28.10
2023-05-17T21:45:13.066Z,28.20
2023-05-17T21:47:41.986Z,28.10
2023-05-17T21:50:12.242Z,28.10
2023-05-17T21:52:41.294Z,28.10
2023-05-17T21:55:11.192Z,28.10
2023-05-17T21:57:41.355Z,28.10
2023-05-17T22:00:13.019Z,28.10
2023-05-17T22:02:42.306Z,28.20
2023-05-17T22:05:11.936Z,28.10
2023-05-17T22:07:41.150Z,28.10
2023-05-17T22:10:11.157Z,28.10
2023-05-17T22:12:42.094Z,28.10
2023-05-17T22:15:13.681Z,28.10
2023-05-17T22:17:48.477Z,28.10
2023-05-17T22:20:23.791Z,28.20
2023-05-17T22:22:52.822Z,28.10
2023-05-17T22:25:22.194Z,28.00
2023-05-17T22:27:52.360Z,28.00
2023-05-17T22:30:21.561Z,27.90
2023-05-17T22:32:51.989Z,27.80
2023-05-17T22:35:21.647Z,27.80
2023-05-17T22:37:51.780Z,27.70
2023-05-17T22:40:21.244Z,27.70
2023-05-17T22:42:52.038Z,27.60
2023-05-17T22:45:21.369Z,27.60
2023-05-17T22:47:50.778Z,27.60
2023-05-17T22:50:20.190Z,27.60
2023-05-17T22:52:50.821Z,27.60
2023-05-17T22:55:19.987Z,27.60
2023-05-17T22:57:48.742Z,27.60
2023-05-17T23:00:20.671Z,27.60
2023-05-17T23:02:49.557Z,27.40
2023-05-17T23:05:19.927Z,27.40
2023-05-17T23:07:48.744Z,27.40
2023-05-17T23:10:17.860Z,27.30
2023-05-17T23:12:46.631Z,27.30
2023-05-17T23:15:16.301Z,27.30
2023-05-17T23:17:47.461Z,27.20
2023-05-17T23:20:16.610Z,27.20
2023-05-17T23:22:47.608Z,27.20
2023-05-17T23:25:16.922Z,27.10
2023-05-17T23:27:45.722Z,27.10
2023-05-17T23:30:15.305Z,27.00
2023-05-17T23:32:47.291Z,27.10
2023-05-17T23:35:16.828Z,27.10
2023-05-17T23:37:45.577Z,27.00
2023-05-17T23:40:16.703Z,27.00
2023-05-17T23:42:46.120Z,27.00
2023-05-17T23:45:15.155Z,27.00
2023-05-17T23:47:47.585Z,26.90
2023-05-17T23:50:16.992Z,26.90
2023-05-17T23:52:47.401Z,26.90
2023-05-17T23:55:16.729Z,26.90
2023-05-17T23:57:45.560Z,26.90
